Time;durP1;ratioP1;P1;durP2;ratioP2;P2;SDS_P1;SDS_P2;PMS_P1;PMS_P2;Temp;Humidity;BMP_temperature;BMP_pressure;BME280_temperature;BME280_humidity;BME280_pressure;Samples;Min_cycle;Max_cycle;Signal;HPM_P1;HPM_P2
2023/07/14 00:04:53;;;;;;;;;;;;;;;17.85;56.86914;101774.7;;;;-68
2023/07/14 00:09:56;;;;;;;;;;;;;;;17.82;57.3291;101769.9;;;;-69
2023/07/14 00:14:53;;;;;;;;;;;;;;;17.78;57.25684;101763.2;;;;-70
2023/07/14 00:19:02;;;;;;;0.2;0.1;;;;;;;;;;;;;-69
2023/07/14 00:19:56;;;;;;;;;;;;;;;17.75;57.36523;101763;;;;-68
2023/07/14 00:24:54;;;;;;;;;;;;;;;17.72;57.47461;101760.3;;;;-68
2023/07/14 00:29:54;;;;;;;;;;;;;;;17.66;58.47559;101758;;;;-68
2023/07/14 00:34:53;;;;;;;;;;;;;;;17.63;58.23438;101756.2;;;;-70
2023/07/14 00:39:53;;;;;;;;;;;;;;;17.58;57.87598;101753.9;;;;-67
2023/07/14 00:44:58;;;;;;;;;;;;;;;17.58;57.87598;101750.1;;;;-69
2023/07/14 00:49:07;;;;;;;0.2;0.1;;;;;;;;;;;;;-67
2023/07/14 00:49:54;;;;;;;;;;;;;;;17.51;58.14941;101748.4;;;;-68
2023/07/14 00:54:54;;;;;;;;;;;;;;;17.5;58.02344;101752.9;;;;-69
2023/07/14 00:59:54;;;;;;;;;;;;;;;17.46;57.96191;101748.7;;;;-68
2023/07/14 01:04:56;;;;;;;;;;;;;;;17.41;57.91113;101747.6;;;;-68
2023/07/14 01:09:54;;;;;;;;;;;;;;;17.38;58.76563;101739.3;;;;-69
2023/07/14 01:14:55;;;;;;;;;;;;;;;17.38;58.57422;101731.1;;;;-68
2023/07/14 01:19:09;;;;;;;0.2;0.1;;;;;;;;;;;;;-68
2023/07/14 01:19:57;;;;;;;;;;;;;;;17.31;58.88086;101736.3;;;;-69
2023/07/14 01:25:00;;;;;;;;;;;;;;;17.28;58.56055;101736.3;;;;-69
2023/07/14 01:29:56;;;;;;;;;;;;;;;17.24;58.49805;101734;;;;-68
2023/07/14 01:34:55;;;;;;;;;;;;;;;17.22;58.4502;101726.2;;;;-69
2023/07/14 01:39:54;;;;;;;;;;;;;;;17.13;58.54102;101727.4;;;;-71
2023/07/14 01:44:53;;;;;;;;;;;;;;;17.09;58.53516;101720;;;;-68
2023/07/14 01:49:13;;;;;;;0.2;0.1;;;;;;;;;;;;;-70
2023/07/14 01:49:54;;;;;;;;;;;;;;;17.06;58.49805;101722.5;;;;-67
2023/07/14 01:54:56;;;;;;;;;;;;;;;17;58.55859;101718.7;;;;-67
2023/07/14 01:59:56;;;;;;;;;;;;;;;16.96;58.26953;101714.7;;;;-68
2023/07/14 02:04:53;;;;;;;;;;;;;;;16.88;58.71094;101719.8;;;;-68
2023/07/14 02:09:53;;;;;;;;;;;;;;;16.88;58.49609;101716.5;;;;-68
2023/07/14 02:14:59;;;;;;;;;;;;;;;16.82;58.67969;101713.2;;;;-69
2023/07/14 02:19:18;;;;;;;0.2;0;;;;;;;;;;;;;-67
2023/07/14 02:19:54;;;;;;;;;;;;;;;16.76;58.71777;101700.4;;;;-69
2023/07/14 02:24:54;;;;;;;;;;;;;;;16.77;58.43555;101701.2;;;;-69
2023/07/14 02:29:53;;;;;;;;;;;;;;;16.75;58.52441;101698.3;;;;-67
2023/07/14 02:34:56;;;;;;;;;;;;;;;16.68;58.53809;101698.6;;;;-67
2023/07/14 02:39:53;;;;;;;;;;;;;;;16.66;58.38867;101697.4;;;;-69
2023/07/14 02:44:53;;;;;;;;;;;;;;;16.62;58.78906;101697.1;;;;-69
2023/07/14 02:49:15;;;;;;;0.2;0.1;;;;;;;;;;;;;-68
2023/07/14 02:49:53;;;;;;;;;;;;;;;16.6;58.31348;101694.5;;;;-67
2023/07/14 02:54:55;;;;;;;;;;;;;;;16.52;58.58496;101696.5;;;;-67
2023/07/14 02:59:53;;;;;;;;;;;;;;;16.49;58.74902;101697.2;;;;-70
2023/07/14 03:04:53;;;;;;;;;;;;;;;16.45;58.63184;101696.9;;;;-69
2023/07/14 03:09:53;;;;;;;;;;;;;;;16.42;58.72852;101687.8;;;;-69
2023/07/14 03:14:53;;;;;;;;;;;;;;;16.39;59.98828;101692.3;;;;-67
2023/07/14 03:19:17;;;;;;;0.2;0.1;;;;;;;;;;;;;-67
2023/07/14 03:19:53;;;;;;;;;;;;;;;16.37;59.11719;101689.4;;;;-67
2023/07/14 03:24:53;;;;;;;;;;;;;;;16.32;58.80664;101692.4;;;;-67
2023/07/14 03:29:53;;;;;;;;;;;;;;;16.29;59.29785;101688;;;;-69
2023/07/14 03:34:53;;;;;;;;;;;;;;;16.27;59.47656;101687.1;;;;-69
2023/07/14 03:39:53;;;;;;;;;;;;;;;16.24;59.41602;101680.2;;;;-69
2023/07/14 03:44:53;;;;;;;;;;;;;;;16.22;60.5752;101674.8;;;;-70
2023/07/14 03:49:19;;;;;;;0.2;0;;;;;;;;;;;;;-69
2023/07/14 03:49:53;;;;;;;;;;;;;;;16.22;59.70703;101669;;;;-67
2023/07/14 03:54:53;;;;;;;;;;;;;;;16.19;60.27734;101669.3;;;;-69
2023/07/14 03:59:53;;;;;;;;;;;;;;;16.17;59.86914;101668.3;;;;-69
2023/07/14 04:04:53;;;;;;;;;;;;;;;16.15;60.67773;101666.9;;;;-68
2023/07/14 04:09:53;;;;;;;;;;;;;;;16.18;60.92969;101669.8;;;;-67
2023/07/14 04:14:53;;;;;;;;;;;;;;;16.19;60.43457;101666.5;;;;-67
2023/07/14 04:19:21;;;;;;;0.2;0;;;;;;;;;;;;;-68
2023/07/14 04:19:54;;;;;;;;;;;;;;;16.22;60.5293;101659.8;;;;-68
2023/07/14 04:24:53;;;;;;;;;;;;;;;16.22;60.22559;101656;;;;-68
2023/07/14 04:29:53;;;;;;;;;;;;;;;16.27;60.66016;101659.8;;;;-68
2023/07/14 04:34:53;;;;;;;;;;;;;;;16.3;61.05859;101659.7;;;;-68
2023/07/14 04:39:53;;;;;;;;;;;;;;;16.33;60.84961;101667.5;;;;-68
2023/07/14 04:44:53;;;;;;;;;;;;;;;16.36;62.31934;101662.5;;;;-67
2023/07/14 04:49:24;;;;;;;0.2;0.1;;;;;;;;;;;;;-69
2023/07/14 04:49:53;;;;;;;;;;;;;;;16.41;61.99902;101660.4;;;;-70
2023/07/14 04:54:53;;;;;;;;;;;;;;;16.46;61.72461;101663.4;;;;-68
2023/07/14 04:59:53;;;;;;;;;;;;;;;16.47;61.52246;101662.5;;;;-68
2023/07/14 05:05:04;;;;;;;;;;;;;;;16.5;61.93359;101659.1;;;;-68
2023/07/14 05:09:53;;;;;;;;;;;;;;;16.55;61.65723;101653.8;;;;-68
2023/07/14 05:14:54;;;;;;;;;;;;;;;16.56;61.94141;101648;;;;-68
2023/07/14 05:19:28;;;;;;;0.2;0.1;;;;;;;;;;;;;-69
2023/07/14 05:19:54;;;;;;;;;;;;;;;16.59;62.35156;101644.4;;;;-67
2023/07/14 05:24:53;;;;;;;;;;;;;;;16.65;62.7666;101639.3;;;;-69
2023/07/14 05:29:54;;;;;;;;;;;;;;;16.78;62.68457;101632.5;;;;-67
2023/07/14 05:34:53;;;;;;;;;;;;;;;17.13;63.13965;101637.2;;;;-68
2023/07/14 05:39:54;;;;;;;;;;;;;;;17.85;61.44336;101641.5;;;;-69
2023/07/14 05:44:53;;;;;;;;;;;;;;;18.55;60.34961;101636.4;;;;-69
2023/07/14 05:49:28;;;;;;;0.2;0.1;;;;;;;;;;;;;-68
2023/07/14 05:49:54;;;;;;;;;;;;;;;19.01;60.2207;101635.5;;;;-71
2023/07/14 05:54:53;;;;;;;;;;;;;;;19.36;59.97168;101632.4;;;;-71
2023/07/14 05:59:53;;;;;;;;;;;;;;;19.69;59.73242;101633.8;;;;-67
2023/07/14 06:04:53;;;;;;;;;;;;;;;19.98;59.06445;101629.4;;;;-68
2023/07/14 06:09:53;;;;;;;;;;;;;;;20.24;58.33789;101628.1;;;;-68
2023/07/14 06:14:53;;;;;;;;;;;;;;;20.55;57.76172;101624.8;;;;-68
2023/07/14 06:19:33;;;;;;;0.2;0;;;;;;;;;;;;;-68
2023/07/14 06:19:53;;;;;;;;;;;;;;;20.86;57.27832;101617.9;;;;-68
2023/07/14 06:24:53;;;;;;;;;;;;;;;21.19;56.74902;101619.1;;;;-68
2023/07/14 06:29:54;;;;;;;;;;;;;;;21.57;56.12305;101613.1;;;;-68
2023/07/14 06:34:56;;;;;;;;;;;;;;;21.98;55.29395;101610.9;;;;-69
2023/07/14 06:39:53;;;;;;;;;;;;;;;22.34;54.55957;101605.8;;;;-70
2023/07/14 06:44:53;;;;;;;;;;;;;;;22.5;54.60156;101607.3;;;;-69
2023/07/14 06:49:33;;;;;;;0.2;0.1;;;;;;;;;;;;;-68
2023/07/14 06:49:53;;;;;;;;;;;;;;;22.66;53.91113;101600.1;;;;-69
2023/07/14 06:54:53;;;;;;;;;;;;;;;22.91;53.57422;101594;;;;-69
2023/07/14 06:59:53;;;;;;;;;;;;;;;23.22;52.84277;101585.6;;;;-70
2023/07/14 07:04:53;;;;;;;;;;;;;;;23.28;52.45801;101586.4;;;;-69
2023/07/14 07:09:55;;;;;;;;;;;;;;;23.32;52.63574;101589.7;;;;-69
2023/07/14 07:14:54;;;;;;;;;;;;;;;23.3;52.73633;101586.6;;;;-70
2023/07/14 07:19:39;;;;;;;0.3;0.1;;;;;;;;;;;;;-70
2023/07/14 07:19:53;;;;;;;;;;;;;;;23.1;53.30957;101590.5;;;;-68
2023/07/14 07:24:53;;;;;;;;;;;;;;;23.11;53.20801;101583.2;;;;-69
2023/07/14 07:29:54;;;;;;;;;;;;;;;22.85;53.78516;101590.6;;;;-68
2023/07/14 07:34:53;;;;;;;;;;;;;;;22.59;54.33789;101582.2;;;;-68
2023/07/14 07:39:53;;;;;;;;;;;;;;;22.28;54.91992;101578.9;;;;-69
2023/07/14 07:44:53;;;;;;;;;;;;;;;22.24;55.77246;101579.8;;;;-68
2023/07/14 07:49:40;;;;;;;0.2;0;;;;;;;;;;;;;-69
2023/07/14 07:49:56;;;;;;;;;;;;;;;22.55;55.55957;101571.1;;;;-67
2023/07/14 07:54:53;;;;;;;;;;;;;;;22.81;54.68652;101566;;;;-68
2023/07/14 07:59:53;;;;;;;;;;;;;;;22.61;55.45117;101565;;;;-68
2023/07/14 08:04:53;;;;;;;;;;;;;;;22.72;55.78711;101561;;;;-67
2023/07/14 08:09:53;;;;;;;;;;;;;;;23.26;55.2002;101558;;;;-69
2023/07/14 08:14:57;;;;;;;;;;;;;;;23.76;53.90527;101558.4;;;;-68
2023/07/14 08:19:45;;;;;;;0.3;0.1;;;;;;;;;;;;;-69
2023/07/14 08:19:55;;;;;;;;;;;;;;;24.41;52.10645;101554.4;;;;-68
2023/07/14 08:24:53;;;;;;;;;;;;;;;24.42;51.47559;101556.8;;;;-70
2023/07/14 08:29:53;;;;;;;;;;;;;;;24.08;52.26465;101563.9;;;;-69
2023/07/14 08:34:53;;;;;;;;;;;;;;;23.86;52.40039;101563.5;;;;-69
2023/07/14 08:39:56;;;;;;;;;;;;;;;23.71;53.32422;101562.2;;;;-67
2023/07/14 08:45:08;;;;;;;;;;;;;;;23.66;53.26172;101560.4;;;;-69
2023/07/14 08:49:51;;;;;;;0.3;0.1;;;;;;;;;;;;;-68
2023/07/14 08:50:03;;;;;;;;;;;;;;;23.62;53.57813;101555.1;;;;-70
2023/07/14 08:54:55;;;;;;;;;;;;;;;23.77;53.2168;101563.7;;;;-69
2023/07/14 08:59:55;;;;;;;;;;;;;;;23.66;53.45703;101559.5;;;;-69
2023/07/14 09:04:56;;;;;;;;;;;;;;;23.95;52.66504;101554.6;;;;-68
2023/07/14 09:09:53;;;;;;;;;;;;;;;24.23;52.29395;101551;;;;-68
2023/07/14 09:15:00;;;;;;;;;;;;;;;24.31;52.39453;101546.7;;;;-70
2023/07/14 09:20:01;;;;;;;0.2;0;;;;;;;;;;;;;-70
2023/07/14 09:20:24;;;;;;;;;;;;;;;24.86;50.56836;101541.1;;;;-69
2023/07/14 09:24:59;;;;;;;;;;;;;;;25.48;49.42578;101543.8;;;;-68
2023/07/14 09:29:54;;;;;;;;;;;;;;;25.77;48.45215;101534.4;;;;-68
2023/07/14 09:34:58;;;;;;;;;;;;;;;26.05;47.68359;101533.4;;;;-72
2023/07/14 09:40:03;;;;;;;;;;;;;;;25.71;48.47949;101526.9;;;;-68
2023/07/14 09:44:53;;;;;;;;;;;;;;;25.76;47.47949;101529.7;;;;-70
2023/07/14 09:49:57;;;;;;;;;;;;;;;25.86;47.47754;101528.6;;;;-73
2023/07/14 09:50:14;;;;;;;0.2;0;;;;;;;;;;;;;-73
2023/07/14 09:55:00;;;;;;;;;;;;;;;25.84;47.20898;101522.8;;;;-73
2023/07/14 10:00:11;;;;;;;;;;;;;;;25.7;47.37988;101523;;;;-74
2023/07/14 10:05:02;;;;;;;;;;;;;;;25.63;47.51074;101512.7;;;;-73
2023/07/14 10:10:07;;;;;;;;;;;;;;;25.91;46.70801;101511.6;;;;-74
2023/07/14 10:14:53;;;;;;;;;;;;;;;25.9;46.63867;101505.5;;;;-72
2023/07/14 10:19:55;;;;;;;;;;;;;;;26.29;45.88965;101497;;;;-72
2023/07/14 10:20:08;;;;;;;0.2;0;;;;;;;;;;;;;-72
2023/07/14 10:24:59;;;;;;;;;;;;;;;26.59;46.08301;101494.3;;;;-73
2023/07/14 10:29:54;;;;;;;;;;;;;;;26.89;44.95313;101489.7;;;;-72
2023/07/14 10:35:00;;;;;;;;;;;;;;;26.84;44.61133;101495.2;;;;-71
2023/07/14 10:39:55;;;;;;;;;;;;;;;26.69;44.7832;101481.7;;;;-69
2023/07/14 10:44:54;;;;;;;;;;;;;;;26.77;44.55859;101476.4;;;;-69
2023/07/14 10:49:56;;;;;;;;;;;;;;;27.13;43.74609;101475.6;;;;-69
2023/07/14 10:50:08;;;;;;;0.2;0;;;;;;;;;;;;;-69
2023/07/14 10:54:57;;;;;;;;;;;;;;;27.14;43.14355;101476.6;;;;-68
2023/07/14 10:59:56;;;;;;;;;;;;;;;27.14;43.3291;101480.2;;;;-69
2023/07/14 11:04:55;;;;;;;;;;;;;;;26.97;43.19727;101474;;;;-69
2023/07/14 11:09:53;;;;;;;;;;;;;;;26.74;43.75586;101473.2;;;;-70
2023/07/14 11:14:57;;;;;;;;;;;;;;;26.52;44.84668;101472.4;;;;-69
2023/07/14 11:20:05;;;;;;;;;;;;;;;26.29;44.89258;101477;;;;-70
2023/07/14 11:20:22;;;;;;;0.2;0;;;;;;;;;;;;;-70
2023/07/14 11:24:59;;;;;;;;;;;;;;;26.23;45.2002;101473.1;;;;-69
2023/07/14 11:29:57;;;;;;;;;;;;;;;26.19;45.19629;101454.8;;;;-69
2023/07/14 11:34:57;;;;;;;;;;;;;;;26.14;45.21484;101449.6;;;;-68
2023/07/14 11:39:56;;;;;;;;;;;;;;;26.14;45.12109;101438.8;;;;-68
2023/07/14 11:44:55;;;;;;;;;;;;;;;26.18;45.06836;101420.3;;;;-70
2023/07/14 11:49:54;;;;;;;;;;;;;;;26.31;44.81445;101396.2;;;;-69
2023/07/14 11:50:24;;;;;;;0.2;0.1;;;;;;;;;;;;;-68
2023/07/14 11:54:59;;;;;;;;;;;;;;;26.44;44.74609;101402.1;;;;-70
2023/07/14 12:00:03;;;;;;;;;;;;;;;26.4;44.23242;101381;;;;-69
2023/07/14 12:05:04;;;;;;;;;;;;;;;26.39;44.3125;101382.8;;;;-69
2023/07/14 12:10:04;;;;;;;;;;;;;;;26.44;44.15527;101380.1;;;;-68
2023/07/14 12:14:54;;;;;;;;;;;;;;;26.45;43.9248;101392.3;;;;-69
2023/07/14 12:20:07;;;;;;;;;;;;;;;26.4;43.87305;101395.4;;;;-69
2023/07/14 12:20:29;;;;;;;0.2;0;;;;;;;;;;;;;-70
2023/07/14 12:24:55;;;;;;;;;;;;;;;26.19;44.0957;101393.8;;;;-71
2023/07/14 12:30:03;;;;;;;;;;;;;;;25.99;44.57422;101381.8;;;;-68
2023/07/14 12:34:56;;;;;;;;;;;;;;;25.91;45.09863;101376.4;;;;-68
2023/07/14 12:39:55;;;;;;;;;;;;;;;25.81;45.00781;101374;;;;-69
2023/07/14 12:44:55;;;;;;;;;;;;;;;25.92;44.42871;101367.6;;;;-69
2023/07/14 12:49:54;;;;;;;;;;;;;;;26.01;44.17188;101356.9;;;;-68
2023/07/14 12:50:29;;;;;;;0.2;0;;;;;;;;;;;;;-69
2023/07/14 12:54:53;;;;;;;;;;;;;;;26.08;43.94629;101356.7;;;;-72
2023/07/14 12:59:57;;;;;;;;;;;;;;;26.13;44.14844;101344.2;;;;-72
2023/07/14 13:04:54;;;;;;;;;;;;;;;26.34;42.8584;101333.6;;;;-72
2023/07/14 13:10:01;;;;;;;;;;;;;;;26.76;42.44531;101317.5;;;;-68
2023/07/14 13:14:56;;;;;;;;;;;;;;;27.3;43.20508;101321.9;;;;-69
2023/07/14 13:19:53;;;;;;;;;;;;;;;27.57;42.38281;101315;;;;-70
2023/07/14 13:20:29;;;;;;;0.1;0;;;;;;;;;;;;;-69
2023/07/14 13:25:02;;;;;;;;;;;;;;;27.74;42.26953;101315.5;;;;-68
2023/07/14 13:30:01;;;;;;;;;;;;;;;27.86;41.22266;101308.8;;;;-70
2023/07/14 13:34:54;;;;;;;;;;;;;;;28.06;43.05664;101304.5;;;;-67
2023/07/14 13:39:57;;;;;;;;;;;;;;;27.99;41.53711;101298.5;;;;-70
2023/07/14 13:44:55;;;;;;;;;;;;;;;27.99;41.24609;101287.7;;;;-68
2023/07/14 13:49:57;;;;;;;;;;;;;;;28.03;42.29688;101282.6;;;;-70
2023/07/14 13:50:32;;;;;;;0.2;0;;;;;;;;;;;;;-70
2023/07/14 13:54:57;;;;;;;;;;;;;;;28.13;40.52441;101279.1;;;;-70
2023/07/14 13:59:54;;;;;;;;;;;;;;;28.01;40.25781;101272.1;;;;-69
2023/07/14 14:04:53;;;;;;;;;;;;;;;28.05;40.80859;101256;;;;-70
2023/07/14 14:09:53;;;;;;;;;;;;;;;28.03;41.63379;101246.7;;;;-68
2023/07/14 14:14:54;;;;;;;;;;;;;;;28.18;40.25;101243.4;;;;-71
2023/07/14 14:19:53;;;;;;;;;;;;;;;28.23;39.83398;101245.3;;;;-68
2023/07/14 14:20:36;;;;;;;0.2;0;;;;;;;;;;;;;-69
2023/07/14 14:24:53;;;;;;;;;;;;;;;28.31;40.7041;101231.6;;;;-69
2023/07/14 14:29:53;;;;;;;;;;;;;;;28.23;39.78711;101220.6;;;;-72
2023/07/14 14:34:54;;;;;;;;;;;;;;;28.03;39.65332;101206.3;;;;-68
2023/07/14 14:39:56;;;;;;;;;;;;;;;28.07;41.06641;101201.3;;;;-69
2023/07/14 14:44:53;;;;;;;;;;;;;;;28.13;40.38477;101193.5;;;;-71
2023/07/14 14:49:56;;;;;;;;;;;;;;;28.12;40.11621;101182.6;;;;-69
2023/07/14 14:50:41;;;;;;;0.2;0;;;;;;;;;;;;;-70
2023/07/14 14:54:53;;;;;;;;;;;;;;;28.17;41.09961;101180.9;;;;-69
2023/07/14 14:59:53;;;;;;;;;;;;;;;28.16;40.99316;101169.8;;;;-69
2023/07/14 15:04:53;;;;;;;;;;;;;;;28.35;40.28711;101151.4;;;;-70
2023/07/14 15:09:53;;;;;;;;;;;;;;;28.43;40.25977;101148.1;;;;-69
2023/07/14 15:14:54;;;;;;;;;;;;;;;28.42;39.54785;101140.4;;;;-69
2023/07/14 15:19:56;;;;;;;;;;;;;;;28.32;39.92383;101131.2;;;;-70
2023/07/14 15:20:46;;;;;;;0.2;0.1;;;;;;;;;;;;;-70
2023/07/14 15:24:53;;;;;;;;;;;;;;;28.12;40.31348;101125.4;;;;-70
2023/07/14 15:29:54;;;;;;;;;;;;;;;28;40.34961;101119.9;;;;-70
2023/07/14 15:34:53;;;;;;;;;;;;;;;27.82;40.00781;101107.6;;;;-69
2023/07/14 15:39:53;;;;;;;;;;;;;;;27.73;40.93164;101096.8;;;;-70
2023/07/14 15:44:53;;;;;;;;;;;;;;;27.64;40.3877;101087.2;;;;-70
2023/07/14 15:49:53;;;;;;;;;;;;;;;27.58;39.92773;101080.3;;;;-69
2023/07/14 15:50:50;;;;;;;0.2;0;;;;;;;;;;;;;-72
2023/07/14 15:54:53;;;;;;;;;;;;;;;27.49;40.88574;101064.7;;;;-69
2023/07/14 15:59:53;;;;;;;;;;;;;;;27.51;40.52734;101049.2;;;;-69
2023/07/14 16:04:53;;;;;;;;;;;;;;;27.44;40.71875;101046.9;;;;-68
2023/07/14 16:09:53;;;;;;;;;;;;;;;27.31;40.97461;101052.6;;;;-71
2023/07/14 16:14:53;;;;;;;;;;;;;;;27.14;41.19141;101053.2;;;;-69
2023/07/14 16:19:53;;;;;;;;;;;;;;;26.94;41.18555;101033;;;;-69
2023/07/14 16:20:55;;;;;;;0.2;0;;;;;;;;;;;;;-69
2023/07/14 16:24:53;;;;;;;;;;;;;;;26.75;41.875;101035.7;;;;-68
2023/07/14 16:29:54;;;;;;;;;;;;;;;26.59;42.00098;101019.3;;;;-69
2023/07/14 16:34:53;;;;;;;;;;;;;;;26.45;42.23145;101007;;;;-69
2023/07/14 16:39:53;;;;;;;;;;;;;;;26.26;42.15527;100991.9;;;;-68
2023/07/14 16:44:53;;;;;;;;;;;;;;;26.07;42.49609;100982.6;;;;-69
2023/07/14 16:49:53;;;;;;;;;;;;;;;25.92;42.12305;100978.1;;;;-70
2023/07/14 16:51:01;;;;;;;0.2;0;;;;;;;;;;;;;-68
2023/07/14 16:54:53;;;;;;;;;;;;;;;25.77;41.99316;100976.6;;;;-71
2023/07/14 16:59:53;;;;;;;;;;;;;;;25.62;41.50391;100974.1;;;;-70
2023/07/14 17:04:53;;;;;;;;;;;;;;;25.48;41.67676;100960.9;;;;-67
2023/07/14 17:09:53;;;;;;;;;;;;;;;25.3;42.19238;100935.8;;;;-69
2023/07/14 17:14:53;;;;;;;;;;;;;;;25.14;42.29297;100937.8;;;;-69
2023/07/14 17:19:56;;;;;;;;;;;;;;;24.96;42.51953;100931.9;;;;-69
2023/07/14 17:21:05;;;;;;;0.2;0;;;;;;;;;;;;;-71
2023/07/14 17:24:54;;;;;;;;;;;;;;;24.83;42.86523;100926.7;;;;-70
2023/07/14 17:29:57;;;;;;;;;;;;;;;24.71;43.02637;100919.7;;;;-69
2023/07/14 17:34:53;;;;;;;;;;;;;;;24.58;43.32617;100917.4;;;;-70
2023/07/14 17:39:56;;;;;;;;;;;;;;;24.46;43.68457;100913.5;;;;-71
2023/07/14 17:44:53;;;;;;;;;;;;;;;24.34;43.7998;100900.7;;;;-69
2023/07/14 17:49:57;;;;;;;;;;;;;;;24.24;44.2627;100890.4;;;;-70
2023/07/14 17:51:11;;;;;;;0.2;0;;;;;;;;;;;;;-69
2023/07/14 17:54:53;;;;;;;;;;;;;;;24.15;44.4375;100877.3;;;;-71
2023/07/14 17:59:53;;;;;;;;;;;;;;;24.06;44.60254;100875.8;;;;-68
2023/07/14 18:04:53;;;;;;;;;;;;;;;23.96;44.70801;100863.7;;;;-71
2023/07/14 18:09:53;;;;;;;;;;;;;;;23.88;44.79297;100865.5;;;;-69
2023/07/14 18:14:53;;;;;;;;;;;;;;;23.81;45.17773;100859.9;;;;-68
2023/07/14 18:19:53;;;;;;;;;;;;;;;23.73;45.33008;100849.5;;;;-68
2023/07/14 18:21:13;;;;;;;0.3;0.1;;;;;;;;;;;;;-69
2023/07/14 18:24:56;;;;;;;;;;;;;;;23.62;45.71094;100839.3;;;;-68
2023/07/14 18:29:54;;;;;;;;;;;;;;;23.54;45.9209;100832.7;;;;-70
2023/07/14 18:34:53;;;;;;;;;;;;;;;23.48;45.97266;100836.5;;;;-69
2023/07/14 18:39:53;;;;;;;;;;;;;;;23.4;46.13672;100829.1;;;;-71
2023/07/14 18:44:53;;;;;;;;;;;;;;;23.31;46.48535;100819.1;;;;-70
2023/07/14 18:49:53;;;;;;;;;;;;;;;23.24;46.62695;100816.7;;;;-71
2023/07/14 18:51:22;;;;;;;0.2;0;;;;;;;;;;;;;-72
2023/07/14 18:54:54;;;;;;;;;;;;;;;23.17;46.81445;100806.9;;;;-72
2023/07/14 18:59:54;;;;;;;;;;;;;;;23.11;47.11914;100799.3;;;;-71
2023/07/14 19:04:53;;;;;;;;;;;;;;;23.04;47.00879;100794.5;;;;-69
2023/07/14 19:09:53;;;;;;;;;;;;;;;22.97;47.32324;100792.9;;;;-68
2023/07/14 19:14:53;;;;;;;;;;;;;;;22.91;47.52344;100784.5;;;;-68
2023/07/14 19:19:53;;;;;;;;;;;;;;;22.85;47.73438;100779.3;;;;-69
2023/07/14 19:21:22;;;;;;;0.2;0.1;;;;;;;;;;;;;-68
2023/07/14 19:24:54;;;;;;;;;;;;;;;22.78;47.86523;100761.6;;;;-68
2023/07/14 19:29:55;;;;;;;;;;;;;;;22.72;48.42285;100760.1;;;;-69
2023/07/14 19:34:53;;;;;;;;;;;;;;;22.65;48.47266;100760.5;;;;-67
2023/07/14 19:39:53;;;;;;;;;;;;;;;22.59;49.18848;100756.1;;;;-68
2023/07/14 19:44:53;;;;;;;;;;;;;;;22.54;49.14844;100753.7;;;;-68
2023/07/14 19:49:56;;;;;;;;;;;;;;;22.48;49.44141;100747.9;;;;-67
2023/07/14 19:51:25;;;;;;;0.2;0.1;;;;;;;;;;;;;-67
2023/07/14 19:54:53;;;;;;;;;;;;;;;22.42;49.7207;100742.9;;;;-68
2023/07/14 19:59:56;;;;;;;;;;;;;;;22.38;50.2793;100736.6;;;;-68
2023/07/14 20:04:54;;;;;;;;;;;;;;;22.32;50.68457;100725;;;;-68
2023/07/14 20:09:53;;;;;;;;;;;;;;;22.28;50.85156;100720.1;;;;-70
2023/07/14 20:14:53;;;;;;;;;;;;;;;22.25;50.92773;100717;;;;-68
2023/07/14 20:19:53;;;;;;;;;;;;;;;22.2;51.25586;100707.2;;;;-67
2023/07/14 20:21:29;;;;;;;0.3;0.1;;;;;;;;;;;;;-68
2023/07/14 20:24:53;;;;;;;;;;;;;;;22.17;51.8584;100701.3;;;;-68
2023/07/14 20:29:53;;;;;;;;;;;;;;;22.13;51.72754;100698;;;;-70
2023/07/14 20:34:58;;;;;;;;;;;;;;;22.1;51.95313;100698;;;;-70
2023/07/14 20:39:53;;;;;;;;;;;;;;;22.07;52.3623;100699.6;;;;-68
2023/07/14 20:44:53;;;;;;;;;;;;;;;22.03;53.04492;100709.2;;;;-69
2023/07/14 20:49:53;;;;;;;;;;;;;;;22.01;52.62012;100680.9;;;;-68
2023/07/14 20:51:31;;;;;;;0.2;0.1;;;;;;;;;;;;;-69
2023/07/14 20:54:54;;;;;;;;;;;;;;;21.98;53.50879;100666.4;;;;-68
2023/07/14 20:59:53;;;;;;;;;;;;;;;21.94;53.33203;100647.8;;;;-67
2023/07/14 21:04:53;;;;;;;;;;;;;;;21.9;53.85449;100647.6;;;;-68
2023/07/14 21:09:53;;;;;;;;;;;;;;;21.84;53.74414;100638.3;;;;-69
2023/07/14 21:14:53;;;;;;;;;;;;;;;21.82;54.41699;100627.4;;;;-68
2023/07/14 21:19:53;;;;;;;;;;;;;;;21.76;54.45605;100614.7;;;;-68
2023/07/14 21:21:35;;;;;;;0.3;0.1;;;;;;;;;;;;;-68
2023/07/14 21:24:53;;;;;;;;;;;;;;;21.71;54.58594;100602.2;;;;-68
2023/07/14 21:29:53;;;;;;;;;;;;;;;21.69;55.05273;100588.3;;;;-70
2023/07/14 21:34:53;;;;;;;;;;;;;;;21.68;55.13184;100576.6;;;;-68
2023/07/14 21:39:53;;;;;;;;;;;;;;;21.63;55.65234;100563.3;;;;-69
2023/07/14 21:44:53;;;;;;;;;;;;;;;21.61;55.34082;100562.2;;;;-69
2023/07/14 21:49:53;;;;;;;;;;;;;;;21.6;55.40625;100546.7;;;;-68
2023/07/14 21:51:38;;;;;;;0.2;0.1;;;;;;;;;;;;;-67
2023/07/14 21:54:53;;;;;;;;;;;;;;;21.58;55.80469;100532.9;;;;-68
2023/07/14 21:59:57;;;;;;;;;;;;;;;21.54;56.15527;100529.5;;;;-70
2023/07/14 22:04:53;;;;;;;;;;;;;;;21.51;56.00195;100526.9;;;;-67
2023/07/14 22:09:53;;;;;;;;;;;;;;;21.45;56.26855;100520.4;;;;-68
2023/07/14 22:14:54;;;;;;;;;;;;;;;21.4;56.23926;100515;;;;-68
2023/07/14 22:19:53;;;;;;;;;;;;;;;21.36;56.61133;100511;;;;-69
2023/07/14 22:21:41;;;;;;;0.5;0.2;;;;;;;;;;;;;-69
2023/07/14 22:24:55;;;;;;;;;;;;;;;21.32;56.49219;100499.9;;;;-69
2023/07/14 22:29:53;;;;;;;;;;;;;;;21.27;56.94336;100494.4;;;;-68
2023/07/14 22:34:53;;;;;;;;;;;;;;;21.23;56.83496;100482.2;;;;-70
2023/07/14 22:39:53;;;;;;;;;;;;;;;21.22;56.59375;100470.8;;;;-68
2023/07/14 22:44:54;;;;;;;;;;;;;;;21.17;57.15723;100467.3;;;;-67
2023/07/14 22:49:58;;;;;;;;;;;;;;;21.14;57.10938;100454.2;;;;-69
2023/07/14 22:51:49;;;;;;;0.4;0.2;;;;;;;;;;;;;-69
2023/07/14 22:54:53;;;;;;;;;;;;;;;21.11;56.99023;100449;;;;-69
2023/07/14 22:59:53;;;;;;;;;;;;;;;21.08;57.06738;100438.5;;;;-67
2023/07/14 23:04:53;;;;;;;;;;;;;;;21.05;57.26758;100433.7;;;;-69
2023/07/14 23:09:53;;;;;;;;;;;;;;;21.05;56.75391;100432.8;;;;-69
2023/07/14 23:14:53;;;;;;;;;;;;;;;21.04;56.44629;100415.3;;;;-69
2023/07/14 23:19:55;;;;;;;;;;;;;;;21.01;56.54297;100407.9;;;;-68
2023/07/14 23:21:48;;;;;;;0.2;0;;;;;;;;;;;;;-67
2023/07/14 23:24:53;;;;;;;;;;;;;;;21;56.46289;100403.5;;;;-69
2023/07/14 23:29:54;;;;;;;;;;;;;;;20.98;56.57422;100393.4;;;;-68
2023/07/14 23:34:54;;;;;;;;;;;;;;;20.96;56.68652;100394.1;;;;-68
2023/07/14 23:39:53;;;;;;;;;;;;;;;20.98;56.73438;100395.9;;;;-69
2023/07/14 23:44:55;;;;;;;;;;;;;;;20.99;56.82715;100390.1;;;;-68
2023/07/14 23:49:53;;;;;;;;;;;;;;;20.99;56.4502;100387.2;;;;-68
2023/07/14 23:51:53;;;;;;;0.4;0.1;;;;;;;;;;;;;-70
2023/07/14 23:54:53;;;;;;;;;;;;;;;21;56.44043;100381.5;;;;-69
2023/07/14 23:59:53;;;;;;;;;;;;;;;21.02;56.55664;100366.8;;;;-66
